createdAt,value
2023-05-06T00:00:47.540Z,1.00
2023-05-06T00:04:09.502Z,1.00
2023-05-06T00:07:31.545Z,1.00
2023-05-06T00:10:53.509Z,1.00
2023-05-06T00:14:15.713Z,1.00
2023-05-06T00:17:37.829Z,1.00
2023-05-06T00:21:00.001Z,1.00
2023-05-06T00:24:21.938Z,83.90
2023-05-06T00:27:43.893Z,81.10
2023-05-06T00:31:06.178Z,60.60
2023-05-06T00:34:28.170Z,76.70
2023-05-06T00:38:11.517Z,78.50
2023-05-06T00:41:34.136Z,52.80
2023-05-06T00:44:56.124Z,1.00
2023-05-06T00:48:18.612Z,1.00
2023-05-06T00:51:40.975Z,39.00
2023-05-06T00:55:03.219Z,81.30
2023-05-06T00:58:25.196Z,7.00
2023-05-06T01:01:47.263Z,96.30
2023-05-06T01:05:10.256Z,99.90
2023-05-06T01:08:42.798Z,99.80
2023-05-06T01:12:19.182Z,92.00
2023-05-06T01:15:46.357Z,99.90
2023-05-06T01:19:17.973Z,91.10
2023-05-06T01:22:40.344Z,99.90
2023-05-06T01:26:02.718Z,99.90
2023-05-06T01:29:24.777Z,71.80
2023-05-06T01:32:52.889Z,93.40
2023-05-06T01:36:57.706Z,99.90
2023-05-06T01:40:20.939Z,99.90
2023-05-06T01:43:45.025Z,99.90
2023-05-06T01:47:08.892Z,99.90
2023-05-06T01:50:31.386Z,99.90
2023-05-06T01:53:53.393Z,1.00
2023-05-06T01:57:15.393Z,1.00
2023-05-06T02:00:39.047Z,1.00
2023-05-06T02:04:01.675Z,1.00
2023-05-06T02:07:24.131Z,99.90
2023-05-06T02:10:46.123Z,1.00
2023-05-06T02:14:08.149Z,1.00
2023-05-06T02:17:31.375Z,1.00
2023-05-06T02:20:53.414Z,1.00
2023-05-06T02:24:16.795Z,1.00
2023-05-06T02:27:38.798Z,1.00
2023-05-06T02:31:00.834Z,1.00
2023-05-06T02:34:23.373Z,1.00
2023-05-06T02:37:45.322Z,1.00
2023-05-06T02:41:07.298Z,1.00
2023-05-06T02:44:29.552Z,1.00
2023-05-06T02:47:53.845Z,1.00
2023-05-06T02:51:16.193Z,1.00
2023-05-06T02:54:39.772Z,1.00
2023-05-06T02:58:01.868Z,1.00
2023-05-06T03:01:24.234Z,1.00
2023-05-06T03:04:46.205Z,1.00
2023-05-06T03:08:08.292Z,1.00
2023-05-06T03:11:32.064Z,1.00
2023-05-06T03:14:57.832Z,17.30
2023-05-06T03:18:20.313Z,14.90
2023-05-06T03:21:42.407Z,1.00
2023-05-06T03:25:05.254Z,1.00
2023-05-06T03:28:29.124Z,5.50
2023-05-06T03:31:51.455Z,1.00
2023-05-06T03:35:16.388Z,9.50
2023-05-06T03:38:41.644Z,22.30
2023-05-06T03:42:06.533Z,52.80
2023-05-06T03:45:30.790Z,30.50
2023-05-06T03:48:55.587Z,22.90
2023-05-06T03:52:18.688Z,28.90
2023-05-06T03:55:40.804Z,1.00
2023-05-06T03:59:04.067Z,1.00
2023-05-06T04:02:26.688Z,1.00
2023-05-06T04:05:50.622Z,8.90
2023-05-06T04:09:15.717Z,34.90
2023-05-06T04:12:37.858Z,23.00
2023-05-06T04:16:02.786Z,36.90
2023-05-06T04:19:30.513Z,39.70
2023-05-06T04:22:53.538Z,58.30
2023-05-06T04:26:16.272Z,79.70
2023-05-06T04:29:39.596Z,54.70
2023-05-06T04:33:04.011Z,64.80
2023-05-06T04:36:28.432Z,44.10
2023-05-06T04:40:05.730Z,26.00
2023-05-06T04:43:32.850Z,1.00
2023-05-06T04:47:03.085Z,1.00
2023-05-06T04:50:25.292Z,1.00
2023-05-06T04:53:48.400Z,1.00
2023-05-06T04:57:10.611Z,1.00
2023-05-06T05:00:32.999Z,1.00
2023-05-06T05:03:55.798Z,99.90
2023-05-06T05:07:17.822Z,99.90
2023-05-06T05:10:45.942Z,99.90
2023-05-06T05:14:12.562Z,99.90
2023-05-06T05:17:35.798Z,99.90
2023-05-06T05:20:58.035Z,1.00
2023-05-06T05:24:20.364Z,1.00
2023-05-06T05:27:43.124Z,99.90
2023-05-06T05:31:06.587Z,1.00
2023-05-06T05:34:31.299Z,99.90
2023-05-06T05:37:53.948Z,99.90
2023-05-06T05:41:17.531Z,99.90
2023-05-06T05:44:40.888Z,98.50
2023-05-06T05:48:03.319Z,9.20
2023-05-06T05:51:25.484Z,1.00
2023-05-06T05:54:49.909Z,1.00
2023-05-06T05:58:13.410Z,1.00
2023-05-06T06:01:36.661Z,1.00
2023-05-06T06:04:59.716Z,1.00
2023-05-06T06:08:21.793Z,1.00
2023-05-06T06:11:47.185Z,1.00
2023-05-06T06:15:09.961Z,1.00
2023-05-06T06:18:32.836Z,1.00
2023-05-06T06:21:54.988Z,1.00
2023-05-06T06:25:17.981Z,1.00
2023-05-06T06:28:40.105Z,1.00
2023-05-06T06:32:04.135Z,1.00
2023-05-06T06:35:26.927Z,1.00
2023-05-06T06:38:48.934Z,1.00
2023-05-06T06:42:11.053Z,1.00
2023-05-06T06:45:47.533Z,1.00
2023-05-06T06:49:09.591Z,1.00
2023-05-06T06:52:31.773Z,1.00
2023-05-06T06:55:53.865Z,1.00
2023-05-06T06:59:15.853Z,1.00
2023-05-06T07:02:37.931Z,1.00
2023-05-06T07:06:00.046Z,1.00
2023-05-06T07:09:22.060Z,1.00
2023-05-06T07:12:44.217Z,1.00
2023-05-06T07:16:06.421Z,1.00
2023-05-06T07:19:29.008Z,1.00
2023-05-06T07:22:51.140Z,1.00
2023-05-06T07:26:13.068Z,1.00
2023-05-06T07:29:38.186Z,1.00
2023-05-06T07:33:00.307Z,1.00
2023-05-06T07:36:22.319Z,1.00
2023-05-06T07:39:44.297Z,1.00
2023-05-06T07:43:07.116Z,1.00
2023-05-06T07:46:29.682Z,1.00
2023-05-06T07:49:51.659Z,1.00
2023-05-06T07:53:13.974Z,1.00
2023-05-06T07:56:36.222Z,1.00
2023-05-06T07:59:58.601Z,1.00
2023-05-06T08:03:20.757Z,99.90
2023-05-06T08:06:42.828Z,99.90
2023-05-06T08:10:05.388Z,99.90
2023-05-06T08:13:28.285Z,99.90
2023-05-06T08:16:51.151Z,99.90
2023-05-06T08:20:15.945Z,99.90
2023-05-06T08:23:37.998Z,99.90
2023-05-06T08:27:00.024Z,99.90
2023-05-06T08:30:22.208Z,99.90
2023-05-06T08:33:44.237Z,99.90
2023-05-06T08:37:06.196Z,99.90
2023-05-06T08:40:32.682Z,99.90
2023-05-06T08:43:57.220Z,99.90
2023-05-06T08:47:21.013Z,99.90
2023-05-06T08:50:43.650Z,99.90
2023-05-06T08:54:07.504Z,99.90
2023-05-06T08:57:31.240Z,99.90
2023-05-06T09:00:53.291Z,99.90
2023-05-06T09:04:17.006Z,99.90
2023-05-06T09:07:38.957Z,99.90
2023-05-06T09:11:00.957Z,99.90
2023-05-06T09:14:23.567Z,99.90
2023-05-06T09:17:45.522Z,99.90
2023-05-06T09:21:08.532Z,99.90
2023-05-06T09:24:31.049Z,99.90
2023-05-06T09:28:07.152Z,99.90
2023-05-06T09:31:29.987Z,99.90
2023-05-06T09:34:52.048Z,99.90
2023-05-06T09:38:14.129Z,99.90
2023-05-06T09:41:37.144Z,99.90
2023-05-06T09:45:02.510Z,99.90
2023-05-06T09:48:30.194Z,99.90
2023-05-06T09:51:52.968Z,99.90
2023-05-06T09:55:15.562Z,99.90
2023-05-06T09:58:38.299Z,99.90
2023-05-06T10:02:02.335Z,99.90
2023-05-06T10:05:26.358Z,99.90
2023-05-06T10:08:49.026Z,99.90
2023-05-06T10:12:11.174Z,99.90
2023-05-06T10:15:33.476Z,99.90
2023-05-06T10:18:56.477Z,99.90
2023-05-06T10:22:58.301Z,99.90
2023-05-06T10:26:21.842Z,99.90
2023-05-06T10:29:46.437Z,99.90
2023-05-06T10:33:10.433Z,99.90
2023-05-06T10:36:36.273Z,99.90
2023-05-06T10:39:58.759Z,99.90
2023-05-06T10:43:25.475Z,99.90
2023-05-06T10:46:59.125Z,99.90
2023-05-06T10:50:28.144Z,99.90
2023-05-06T10:54:07.141Z,99.90
2023-05-06T10:57:41.049Z,99.90
2023-05-06T11:01:03.264Z,99.90
2023-05-06T11:04:25.630Z,99.90
2023-05-06T11:07:53.301Z,99.90
2023-05-06T11:11:48.989Z,99.90
2023-05-06T11:15:21.296Z,99.90
2023-05-06T11:18:44.003Z,99.90
2023-05-06T11:22:07.171Z,99.90
2023-05-06T11:25:51.309Z,99.90
2023-05-06T11:29:16.638Z,99.90
2023-05-06T11:32:40.374Z,99.90
2023-05-06T11:36:06.696Z,1.00
2023-05-06T11:39:30.937Z,99.90
2023-05-06T11:42:53.071Z,99.90
2023-05-06T11:46:15.036Z,99.90
2023-05-06T11:49:43.686Z,99.90
2023-05-06T11:53:05.688Z,1.00
2023-05-06T11:56:27.655Z,1.00
2023-05-06T11:59:54.433Z,99.90
2023-05-06T12:03:16.499Z,99.90
2023-05-06T12:06:39.603Z,99.90
2023-05-06T12:10:04.283Z,99.90
2023-05-06T12:13:27.590Z,99.90
2023-05-06T12:16:50.179Z,99.90
2023-05-06T12:20:12.953Z,99.90
2023-05-06T12:23:35.123Z,99.90
2023-05-06T12:26:57.122Z,99.90
2023-05-06T12:30:32.576Z,99.90
2023-05-06T12:33:56.091Z,99.90
2023-05-06T12:37:29.825Z,99.90
2023-05-06T12:40:55.517Z,99.90
2023-05-06T12:44:51.264Z,99.90
2023-05-06T12:48:16.795Z,99.90
2023-05-06T12:51:38.790Z,99.90
2023-05-06T12:55:02.693Z,99.90
2023-05-06T12:58:24.673Z,99.90
2023-05-06T13:01:46.677Z,99.90
2023-05-06T13:05:08.900Z,99.90
2023-05-06T13:08:30.829Z,99.90
2023-05-06T13:11:53.158Z,99.90
2023-05-06T13:15:15.237Z,99.90
2023-05-06T13:18:37.554Z,99.90
2023-05-06T13:22:00.508Z,99.90
2023-05-06T13:25:23.271Z,99.90
2023-05-06T13:28:46.445Z,99.90
2023-05-06T13:32:15.741Z,99.90
2023-05-06T13:35:41.300Z,99.90
2023-05-06T13:39:04.225Z,99.90
2023-05-06T13:42:26.273Z,99.90
2023-05-06T13:45:48.217Z,99.90
2023-05-06T13:49:10.228Z,99.90
2023-05-06T13:52:32.312Z,99.90
2023-05-06T13:55:54.288Z,99.90
2023-05-06T13:59:16.358Z,99.90
2023-05-06T14:02:38.728Z,99.90
2023-05-06T14:06:01.349Z,99.90
2023-05-06T14:09:24.170Z,99.90
2023-05-06T14:12:46.598Z,99.90
2023-05-06T14:16:08.893Z,99.90
2023-05-06T14:19:30.944Z,99.90
2023-05-06T14:22:52.890Z,99.90
2023-05-06T14:26:15.517Z,99.90
2023-05-06T14:29:37.497Z,99.90
2023-05-06T14:32:59.579Z,99.90
2023-05-06T14:36:21.580Z,99.90
2023-05-06T14:39:43.577Z,99.90
2023-05-06T14:43:07.476Z,99.90
2023-05-06T14:46:29.811Z,99.90
2023-05-06T14:49:51.964Z,99.90
2023-05-06T14:53:13.985Z,99.90
2023-05-06T14:56:36.297Z,99.90
2023-05-06T14:59:58.713Z,99.90
2023-05-06T15:03:20.993Z,99.90
2023-05-06T15:06:42.916Z,99.90
2023-05-06T15:10:05.346Z,99.90
2023-05-06T15:13:27.314Z,99.90
2023-05-06T15:16:49.441Z,99.90
2023-05-06T15:20:14.108Z,99.90
2023-05-06T15:23:37.520Z,99.90
2023-05-06T15:26:59.752Z,99.90
2023-05-06T15:30:21.758Z,99.90
2023-05-06T15:33:43.986Z,99.90
2023-05-06T15:37:06.332Z,99.90
2023-05-06T15:40:28.325Z,99.90
2023-05-06T15:43:50.988Z,99.90
2023-05-06T15:47:12.890Z,99.90
2023-05-06T15:50:37.240Z,99.90
2023-05-06T15:53:59.540Z,99.90
2023-05-06T15:57:21.503Z,99.90
2023-05-06T16:00:43.481Z,99.90
2023-05-06T16:04:05.666Z,99.90
2023-05-06T16:07:27.845Z,99.90
2023-05-06T16:10:52.023Z,99.90
2023-05-06T16:14:13.992Z,99.90
2023-05-06T16:17:38.067Z,99.90
2023-05-06T16:21:00.137Z,99.90
2023-05-06T16:24:22.210Z,99.90
2023-05-06T16:27:44.230Z,99.90
2023-05-06T16:31:06.644Z,99.90
2023-05-06T16:34:28.677Z,99.90
2023-05-06T16:37:50.774Z,99.90
2023-05-06T16:41:12.720Z,99.90
2023-05-06T16:44:35.259Z,99.90
2023-05-06T16:47:57.332Z,99.90
2023-05-06T16:51:19.395Z,99.90
2023-05-06T16:54:41.592Z,99.90
2023-05-06T16:58:04.165Z,99.90
2023-05-06T17:01:26.973Z,99.90
2023-05-06T17:04:49.020Z,99.90
2023-05-06T17:08:10.993Z,99.90
2023-05-06T17:11:32.925Z,99.90
2023-05-06T17:14:54.896Z,1.00
2023-05-06T17:18:16.908Z,99.90
2023-05-06T17:21:38.903Z,1.00
2023-05-06T17:25:00.872Z,1.00
2023-05-06T17:28:23.029Z,1.00
2023-05-06T17:31:44.973Z,1.00
2023-05-06T17:35:07.626Z,1.00
2023-05-06T17:38:29.797Z,1.00
2023-05-06T17:41:51.815Z,1.00
2023-05-06T17:45:14.128Z,1.00
2023-05-06T17:48:36.102Z,1.00
2023-05-06T17:51:59.380Z,1.00
2023-05-06T17:55:23.805Z,1.00
2023-05-06T17:58:48.054Z,1.00
2023-05-06T18:02:13.926Z,1.00
2023-05-06T18:05:35.926Z,1.00
2023-05-06T18:08:57.914Z,1.00
2023-05-06T18:12:20.312Z,1.00
2023-05-06T18:15:42.599Z,1.00
2023-05-06T18:19:05.262Z,1.00
2023-05-06T18:22:27.217Z,1.00
2023-05-06T18:25:49.551Z,1.00
2023-05-06T18:29:11.654Z,1.00
2023-05-06T18:32:34.881Z,1.00
2023-05-06T18:35:57.254Z,1.00
2023-05-06T18:39:19.422Z,1.00
2023-05-06T18:42:41.382Z,1.00
2023-05-06T18:46:05.470Z,1.00
2023-05-06T18:49:28.595Z,1.00
2023-05-06T18:52:50.668Z,1.00
2023-05-06T18:56:14.012Z,1.00
2023-05-06T18:59:36.434Z,1.00
2023-05-06T19:02:58.795Z,1.00
2023-05-06T19:06:20.872Z,1.00
2023-05-06T19:09:43.244Z,1.00
2023-05-06T19:13:07.341Z,1.00
2023-05-06T19:16:29.452Z,1.00
2023-05-06T19:19:51.612Z,4.40
2023-05-06T19:23:13.629Z,10.80
2023-05-06T19:26:35.721Z,28.30
2023-05-06T19:29:57.677Z,57.40
2023-05-06T19:33:19.675Z,71.00
2023-05-06T19:36:41.628Z,61.00
2023-05-06T19:40:04.363Z,70.30
2023-05-06T19:43:26.696Z,51.30
2023-05-06T19:46:55.192Z,52.60
2023-05-06T19:50:17.929Z,76.80
2023-05-06T19:53:40.581Z,90.20
2023-05-06T19:57:03.354Z,99.90
2023-05-06T20:00:28.227Z,99.90
2023-05-06T20:03:50.692Z,99.90
2023-05-06T20:07:14.052Z,96.60
2023-05-06T20:10:37.087Z,99.90
2023-05-06T20:13:59.756Z,99.90
2023-05-06T20:17:23.364Z,99.90
2023-05-06T20:20:47.468Z,99.90
2023-05-06T20:24:09.748Z,99.90
2023-05-06T20:27:31.798Z,99.90
2023-05-06T20:30:55.531Z,99.90
2023-05-06T20:34:17.714Z,99.90
2023-05-06T20:37:41.257Z,99.90
2023-05-06T20:41:03.226Z,99.90
2023-05-06T20:44:25.295Z,99.90
2023-05-06T20:47:47.361Z,99.90
2023-05-06T20:51:09.392Z,99.90
2023-05-06T20:54:32.330Z,99.90
2023-05-06T20:57:54.321Z,99.90
2023-05-06T21:01:16.670Z,99.90
2023-05-06T21:04:39.012Z,99.90
2023-05-06T21:08:03.602Z,99.90
2023-05-06T21:11:28.780Z,99.90
2023-05-06T21:14:51.568Z,99.90
2023-05-06T21:18:14.912Z,99.90
2023-05-06T21:21:37.219Z,96.50
2023-05-06T21:24:59.479Z,97.00
2023-05-06T21:28:21.951Z,94.70
2023-05-06T21:31:44.723Z,99.90
2023-05-06T21:35:07.631Z,99.90
2023-05-06T21:38:29.852Z,99.90
2023-05-06T21:41:51.913Z,99.90
2023-05-06T21:45:16.326Z,99.90
2023-05-06T21:48:38.930Z,99.90
2023-05-06T21:52:01.119Z,99.90
2023-05-06T21:55:23.228Z,99.90
2023-05-06T21:58:45.344Z,99.90
2023-05-06T22:02:07.691Z,99.90
2023-05-06T22:05:29.866Z,99.90
2023-05-06T22:08:52.117Z,99.90
2023-05-06T22:12:15.492Z,99.90
2023-05-06T22:15:37.465Z,99.90
2023-05-06T22:19:00.633Z,99.90
2023-05-06T22:22:22.706Z,99.90
2023-05-06T22:25:44.907Z,99.90
2023-05-06T22:29:07.364Z,99.90
2023-05-06T22:32:29.454Z,99.90
2023-05-06T22:35:51.430Z,99.40
2023-05-06T22:39:13.416Z,99.90
2023-05-06T22:42:35.743Z,99.90
2023-05-06T22:45:57.720Z,99.90
2023-05-06T22:49:19.940Z,99.90
2023-05-06T22:52:41.997Z,99.90
2023-05-06T22:56:04.081Z,99.90
2023-05-06T22:59:26.126Z,99.90
2023-05-06T23:02:48.223Z,99.90
2023-05-06T23:06:11.388Z,99.90
2023-05-06T23:09:33.304Z,99.90
2023-05-06T23:12:55.349Z,99.90
2023-05-06T23:16:17.456Z,99.90
2023-05-06T23:19:39.502Z,99.90
2023-05-06T23:23:01.556Z,99.90
2023-05-06T23:26:24.041Z,99.90
2023-05-06T23:29:46.070Z,99.90
2023-05-06T23:33:08.954Z,99.90
2023-05-06T23:36:31.186Z,99.90
2023-05-06T23:39:53.288Z,99.90
2023-05-06T23:43:15.316Z,99.90
2023-05-06T23:46:37.334Z,99.90
2023-05-06T23:50:00.713Z,99.90
2023-05-06T23:53:22.768Z,99.90
2023-05-06T23:56:44.873Z,99.90
